createdAt,value
2018-08-28T00:00:46.781Z,0
2018-08-28T00:01:46.877Z,0
2018-08-28T00:02:46.857Z,0
2018-08-28T00:03:46.804Z,0
2018-08-28T00:04:46.928Z,0
2018-08-28T00:05:46.855Z,0
2018-08-28T00:06:46.860Z,0
2018-08-28T00:07:46.927Z,0
2018-08-28T00:08:46.932Z,0
2018-08-28T00:09:46.862Z,0
2018-08-28T00:10:46.928Z,0
2018-08-28T00:11:46.863Z,0
2018-08-28T00:12:46.861Z,0
2018-08-28T00:13:46.932Z,0
2018-08-28T00:14:46.895Z,0
2018-08-28T00:15:46.878Z,0
2018-08-28T00:16:46.833Z,0
2018-08-28T00:17:46.905Z,0
2018-08-28T00:18:46.903Z,0
2018-08-28T00:19:46.800Z,0
2018-08-28T00:20:46.905Z,0
2018-08-28T00:21:46.840Z,0
2018-08-28T00:22:46.890Z,0
2018-08-28T00:23:46.802Z,0
2018-08-28T00:24:46.970Z,0
2018-08-28T00:25:46.802Z,0
2018-08-28T00:26:46.834Z,0
2018-08-28T00:27:46.802Z,0
2018-08-28T00:28:46.896Z,0
2018-08-28T00:29:46.854Z,0
2018-08-28T00:30:46.894Z,0
2018-08-28T00:31:46.973Z,0
2018-08-28T00:32:46.907Z,0
2018-08-28T00:33:46.958Z,0
2018-08-28T00:34:46.885Z,0
2018-08-28T00:35:46.899Z,0
2018-08-28T00:36:46.883Z,0
2018-08-28T00:37:46.950Z,0
2018-08-28T00:38:46.950Z,0
2018-08-28T00:39:46.886Z,0
2018-08-28T00:40:46.955Z,0
2018-08-28T00:41:46.879Z,0
2018-08-28T00:42:46.952Z,0
2018-08-28T00:43:46.943Z,0
2018-08-28T00:44:46.947Z,0
2018-08-28T00:45:46.929Z,0
2018-08-28T00:46:46.905Z,0
2018-08-28T00:47:46.858Z,0
2018-08-28T00:48:46.948Z,0
2018-08-28T00:49:46.928Z,0
2018-08-28T00:50:46.956Z,0
2018-08-28T00:51:46.933Z,0
2018-08-28T00:52:46.893Z,0
2018-08-28T00:53:46.863Z,0
2018-08-28T00:54:46.941Z,0
2018-08-28T00:55:46.858Z,0
2018-08-28T00:56:46.814Z,0
2018-08-28T00:57:46.912Z,0
2018-08-28T00:58:46.927Z,0
2018-08-28T00:59:46.943Z,0
2018-08-28T01:00:46.913Z,0
2018-08-28T01:01:46.817Z,0
2018-08-28T01:02:46.820Z,0
2018-08-28T01:03:46.850Z,0
2018-08-28T01:04:46.870Z,0
2018-08-28T01:05:46.832Z,0
2018-08-28T01:06:46.938Z,0
2018-08-28T01:07:46.940Z,0
2018-08-28T01:08:46.876Z,0
2018-08-28T01:09:46.851Z,0
2018-08-28T01:10:46.882Z,0
2018-08-28T01:11:46.857Z,0
2018-08-28T01:12:46.967Z,0
2018-08-28T01:13:46.914Z,0
2018-08-28T01:14:47.016Z,0
2018-08-28T01:15:46.918Z,0
2018-08-28T01:16:46.980Z,0
2018-08-28T01:17:46.977Z,0
2018-08-28T01:18:46.907Z,0
2018-08-28T01:19:46.907Z,0
2018-08-28T01:20:46.989Z,0
2018-08-28T01:21:46.981Z,0
2018-08-28T01:22:46.980Z,0
2018-08-28T01:23:46.862Z,0
2018-08-28T01:24:46.887Z,0
2018-08-28T01:25:46.932Z,0
2018-08-28T01:26:46.953Z,0
2018-08-28T01:27:46.971Z,0
2018-08-28T01:28:46.935Z,0
2018-08-28T01:29:46.890Z,0
2018-08-28T01:30:46.882Z,0
2018-08-28T01:31:46.884Z,0
2018-08-28T01:32:46.872Z,0
2018-08-28T01:33:46.988Z,0
2018-08-28T01:34:46.931Z,0
2018-08-28T01:35:46.921Z,0
2018-08-28T01:36:46.946Z,0
2018-08-28T01:37:46.918Z,0
2018-08-28T01:38:46.992Z,0
2018-08-28T01:39:46.924Z,0
2018-08-28T01:40:46.996Z,0
2018-08-28T01:41:46.993Z,0
2018-08-28T01:42:46.998Z,0
2018-08-28T01:43:46.860Z,0
2018-08-28T01:44:46.964Z,0
2018-08-28T01:45:46.895Z,0
2018-08-28T01:46:46.862Z,0
2018-08-28T01:47:46.988Z,0
2018-08-28T01:48:46.971Z,0
2018-08-28T01:49:46.920Z,0
2018-08-28T01:50:46.957Z,0
2018-08-28T01:51:46.972Z,0
2018-08-28T01:52:46.997Z,0
2018-08-28T01:53:47.003Z,0
2018-08-28T01:54:46.935Z,0
2018-08-28T01:55:47.005Z,0
2018-08-28T01:56:46.943Z,0
2018-08-28T01:57:46.937Z,0
2018-08-28T01:58:47.006Z,0
2018-08-28T01:59:46.940Z,0
2018-08-28T02:00:47.011Z,0
2018-08-28T02:01:46.944Z,0
2018-08-28T02:02:46.940Z,0
2018-08-28T02:03:46.894Z,0
2018-08-28T02:04:46.903Z,0
2018-08-28T02:05:46.907Z,0
2018-08-28T02:06:46.875Z,0
2018-08-28T02:07:46.903Z,0
2018-08-28T02:08:46.871Z,0
2018-08-28T02:09:47.040Z,0
2018-08-28T02:10:46.973Z,0
2018-08-28T02:11:46.941Z,0
2018-08-28T02:12:46.964Z,0
2018-08-28T02:13:47.010Z,0
2018-08-28T02:14:46.883Z,0
2018-08-28T02:15:46.967Z,0
2018-08-28T02:16:46.919Z,0
2018-08-28T02:17:46.968Z,0
2018-08-28T02:18:46.958Z,0
2018-08-28T02:19:46.904Z,0
2018-08-28T02:20:46.970Z,0
2018-08-28T02:21:46.927Z,0
2018-08-28T02:22:46.975Z,0
2018-08-28T02:23:47.026Z,0
2018-08-28T02:24:47.039Z,0
2018-08-28T02:25:46.954Z,0
2018-08-28T02:26:46.957Z,0
2018-08-28T02:27:47.028Z,0
2018-08-28T02:28:46.958Z,0
2018-08-28T02:29:47.026Z,0
2018-08-28T02:30:47.032Z,0
2018-08-28T02:31:47.057Z,0
2018-08-28T02:32:47.034Z,0
2018-08-28T02:33:47.057Z,0
2018-08-28T02:34:47.031Z,0
2018-08-28T02:35:46.961Z,0
2018-08-28T02:36:46.965Z,0
2018-08-28T02:37:47.037Z,0
2018-08-28T02:38:47.034Z,0
2018-08-28T02:39:46.973Z,0
2018-08-28T02:40:47.038Z,0
2018-08-28T02:41:46.967Z,0
2018-08-28T02:42:47.046Z,0
2018-08-28T02:43:46.944Z,0
2018-08-28T02:44:46.941Z,0
2018-08-28T02:45:46.939Z,0
2018-08-28T02:46:46.935Z,0
2018-08-28T02:47:47.030Z,0
2018-08-28T02:48:46.947Z,0
2018-08-28T02:49:47.030Z,0
2018-08-28T02:50:46.991Z,0
2018-08-28T02:51:46.955Z,0
2018-08-28T02:52:47.029Z,0
2018-08-28T02:53:46.974Z,0
2018-08-28T02:54:47.049Z,0
2018-08-28T02:55:46.981Z,0
2018-08-28T02:56:46.975Z,0
2018-08-28T02:57:47.053Z,0
2018-08-28T02:58:47.049Z,0
2018-08-28T02:59:46.984Z,0
2018-08-28T03:00:47.050Z,0
2018-08-28T03:01:47.007Z,0
2018-08-28T03:02:47.062Z,0
2018-08-28T03:03:46.934Z,0
2018-08-28T03:04:46.913Z,0
2018-08-28T03:05:47.040Z,0
2018-08-28T03:06:47.012Z,0
2018-08-28T03:07:47.026Z,0
2018-08-28T03:08:47.013Z,0
2018-08-28T03:09:46.986Z,0
2018-08-28T03:10:46.921Z,0
2018-08-28T03:11:46.921Z,0
2018-08-28T03:12:47.014Z,0
2018-08-28T03:13:47.058Z,0
2018-08-28T03:14:46.988Z,0
2018-08-28T03:15:47.067Z,0
2018-08-28T03:16:46.997Z,0
2018-08-28T03:17:47.061Z,0
2018-08-28T03:18:47.002Z,0
2018-08-28T03:19:47.062Z,0
2018-08-28T03:20:46.995Z,0
2018-08-28T03:21:46.999Z,0
2018-08-28T03:22:47.066Z,0
2018-08-28T03:23:47.005Z,0
2018-08-28T03:24:47.067Z,0
2018-08-28T03:25:46.996Z,0
2018-08-28T03:26:47.075Z,0
2018-08-28T03:27:46.999Z,0
2018-08-28T03:28:47.074Z,0
2018-08-28T03:29:47.117Z,0
2018-08-28T03:30:46.996Z,0
2018-08-28T03:31:47.118Z,0
2018-08-28T03:32:47.004Z,0
2018-08-28T03:33:47.020Z,0
2018-08-28T03:34:46.965Z,0
2018-08-28T03:35:47.092Z,0
2018-08-28T03:36:47.015Z,0
2018-08-28T03:37:47.016Z,0
2018-08-28T03:38:46.930Z,0
2018-08-28T03:39:46.934Z,0
2018-08-28T03:40:46.976Z,0
2018-08-28T03:41:47.021Z,0
2018-08-28T03:42:47.036Z,0
2018-08-28T03:43:47.083Z,0
2018-08-28T03:44:47.183Z,0
2018-08-28T03:45:47.008Z,0
2018-08-28T03:46:47.085Z,0
2018-08-28T03:47:47.014Z,0
2018-08-28T03:48:47.084Z,0
2018-08-28T03:49:47.015Z,0
2018-08-28T03:50:47.085Z,0
2018-08-28T03:51:47.028Z,0
2018-08-28T03:52:47.086Z,0
2018-08-28T03:53:47.018Z,0
2018-08-28T03:54:47.094Z,0
2018-08-28T03:55:47.022Z,0
2018-08-28T03:56:47.093Z,0
2018-08-28T03:57:47.091Z,0
2018-08-28T03:58:47.043Z,0
2018-08-28T03:59:47.098Z,0
2018-08-28T04:00:47.024Z,0
2018-08-28T04:01:47.093Z,0
2018-08-28T04:02:47.024Z,0
2018-08-28T04:03:47.050Z,0
2018-08-28T04:04:47.022Z,0
2018-08-28T04:05:47.059Z,0
2018-08-28T04:06:46.951Z,0
2018-08-28T04:07:46.984Z,0
2018-08-28T04:08:47.022Z,0
2018-08-28T04:09:47.083Z,0
2018-08-28T04:10:46.990Z,0
2018-08-28T04:11:47.059Z,0
2018-08-28T04:12:47.009Z,0
2018-08-28T04:13:47.091Z,0
2018-08-28T04:14:47.102Z,0
2018-08-28T04:15:47.044Z,0
2018-08-28T04:16:47.106Z,0
2018-08-28T04:17:47.042Z,0
2018-08-28T04:18:47.104Z,0
2018-08-28T04:19:47.034Z,0
2018-08-28T04:20:47.033Z,0
2018-08-28T04:21:47.109Z,0
2018-08-28T04:22:47.131Z,0
2018-08-28T04:23:47.045Z,0
2018-08-28T04:24:47.043Z,0
2018-08-28T04:25:47.134Z,0
2018-08-28T04:26:47.110Z,0
2018-08-28T04:27:47.044Z,0
2018-08-28T04:28:47.111Z,0
2018-08-28T04:29:47.114Z,0
2018-08-28T04:30:47.132Z,0
2018-08-28T04:31:47.045Z,0
2018-08-28T04:32:47.045Z,0
2018-08-28T04:33:47.117Z,0
2018-08-28T04:34:47.046Z,0
2018-08-28T04:35:47.116Z,0
2018-08-28T04:36:47.061Z,0
2018-08-28T04:37:47.118Z,0
2018-08-28T04:38:47.120Z,0
2018-08-28T04:39:47.050Z,0
2018-08-28T04:40:47.120Z,0
2018-08-28T04:41:47.196Z,0
2018-08-28T04:42:47.057Z,0
2018-08-28T04:43:47.122Z,0
2018-08-28T04:44:47.058Z,0
2018-08-28T04:45:47.335Z,0
2018-08-28T04:46:47.058Z,0
2018-08-28T04:47:47.125Z,0
2018-08-28T04:48:47.091Z,0
2018-08-28T04:49:47.062Z,0
2018-08-28T04:50:47.127Z,0
2018-08-28T04:51:47.128Z,0
2018-08-28T04:52:47.060Z,0
2018-08-28T04:53:47.061Z,0
2018-08-28T04:54:47.106Z,0
2018-08-28T04:55:47.133Z,0
2018-08-28T04:56:47.200Z,0
2018-08-28T04:57:47.132Z,0
2018-08-28T04:58:47.135Z,0
2018-08-28T04:59:47.061Z,0
2018-08-28T05:00:47.164Z,0
2018-08-28T05:01:47.138Z,0
2018-08-28T05:02:47.063Z,0
2018-08-28T05:03:47.144Z,0
2018-08-28T05:04:47.062Z,0
2018-08-28T05:05:47.138Z,0
2018-08-28T05:06:47.069Z,0
2018-08-28T05:07:47.138Z,0
2018-08-28T05:08:47.067Z,0
2018-08-28T05:09:47.142Z,0
2018-08-28T05:10:47.146Z,0
2018-08-28T05:11:47.120Z,0
2018-08-28T05:12:47.145Z,0
2018-08-28T05:13:47.075Z,0
2018-08-28T05:14:47.075Z,0
2018-08-28T05:15:47.247Z,0
2018-08-28T05:16:47.171Z,0
2018-08-28T05:17:47.097Z,0
2018-08-28T05:18:47.154Z,0
2018-08-28T05:19:47.082Z,0
2018-08-28T05:20:47.147Z,0
2018-08-28T05:21:47.085Z,0
2018-08-28T05:22:47.154Z,0
2018-08-28T05:23:47.078Z,0
2018-08-28T05:24:47.152Z,151
2018-08-28T05:25:47.080Z,157
2018-08-28T05:26:47.153Z,163
2018-08-28T05:27:47.078Z,168
2018-08-28T05:28:47.153Z,174
2018-08-28T05:29:47.114Z,180
2018-08-28T05:30:47.152Z,191
2018-08-28T05:31:47.084Z,196
2018-08-28T05:32:47.153Z,196
2018-08-28T05:33:47.159Z,202
2018-08-28T05:34:47.123Z,208
2018-08-28T05:35:47.098Z,208
2018-08-28T05:36:47.035Z,213
2018-08-28T05:37:47.065Z,219
2018-08-28T05:38:47.153Z,225
2018-08-28T05:39:47.172Z,230
2018-08-28T05:40:47.110Z,241
2018-08-28T05:41:47.153Z,247
2018-08-28T05:42:47.128Z,253
2018-08-28T05:43:47.050Z,264
2018-08-28T05:44:47.162Z,270
2018-08-28T05:45:47.094Z,281
2018-08-28T05:46:47.118Z,286
2018-08-28T05:47:47.100Z,298
2018-08-28T05:48:47.167Z,309
2018-08-28T05:49:47.104Z,315
2018-08-28T05:50:47.377Z,320
2018-08-28T05:51:47.170Z,326
2018-08-28T05:52:47.131Z,331
2018-08-28T05:53:47.116Z,343
2018-08-28T05:54:47.174Z,354
2018-08-28T05:55:47.186Z,365
2018-08-28T05:56:47.108Z,376
2018-08-28T05:57:47.174Z,388
2018-08-28T05:58:47.115Z,405
2018-08-28T05:59:47.172Z,410
2018-08-28T06:00:47.107Z,416
2018-08-28T06:01:47.111Z,416
2018-08-28T06:02:47.137Z,416
2018-08-28T06:03:47.179Z,421
2018-08-28T06:04:47.039Z,421
2018-08-28T06:05:47.124Z,427
2018-08-28T06:06:47.081Z,438
2018-08-28T06:07:47.127Z,427
2018-08-28T06:08:47.191Z,427
2018-08-28T06:09:47.056Z,427
2018-08-28T06:10:47.151Z,427
2018-08-28T06:11:47.157Z,433
2018-08-28T06:12:47.081Z,444
2018-08-28T06:13:47.065Z,450
2018-08-28T06:14:47.171Z,455
2018-08-28T06:15:47.145Z,461
2018-08-28T06:16:47.137Z,466
2018-08-28T06:17:47.156Z,472
2018-08-28T06:18:47.073Z,472
2018-08-28T06:19:47.114Z,472
2018-08-28T06:20:47.174Z,478
2018-08-28T06:21:47.156Z,478
2018-08-28T06:22:47.091Z,478
2018-08-28T06:23:47.151Z,472
2018-08-28T06:24:47.193Z,472
2018-08-28T06:25:47.220Z,472
2018-08-28T06:26:47.135Z,472
2018-08-28T06:27:47.150Z,478
2018-08-28T06:28:47.198Z,478
2018-08-28T06:29:47.130Z,483
2018-08-28T06:30:47.197Z,489
2018-08-28T06:31:47.130Z,500
2018-08-28T06:32:47.200Z,511
2018-08-28T06:33:47.140Z,528
2018-08-28T06:34:47.149Z,545
2018-08-28T06:35:47.154Z,562
2018-08-28T06:36:47.076Z,585
2018-08-28T06:37:47.089Z,607
2018-08-28T06:38:47.090Z,630
2018-08-28T06:39:47.167Z,635
2018-08-28T06:40:47.111Z,652
2018-08-28T06:41:47.096Z,663
2018-08-28T06:42:47.185Z,669
2018-08-28T06:43:47.177Z,669
2018-08-28T06:44:47.206Z,663
2018-08-28T06:45:47.139Z,658
2018-08-28T06:46:47.209Z,658
2018-08-28T06:47:47.211Z,663
2018-08-28T06:48:47.266Z,663
2018-08-28T06:49:47.209Z,669
2018-08-28T06:50:47.142Z,680
2018-08-28T06:51:47.215Z,691
2018-08-28T06:52:47.139Z,697
2018-08-28T06:53:47.149Z,708
2018-08-28T06:54:47.213Z,703
2018-08-28T06:55:47.138Z,714
2018-08-28T06:56:47.275Z,725
2018-08-28T06:57:47.217Z,731
2018-08-28T06:58:47.148Z,742
2018-08-28T06:59:47.218Z,753
2018-08-28T07:00:47.146Z,753
2018-08-28T07:01:47.219Z,759
2018-08-28T07:02:47.153Z,765
2018-08-28T07:03:47.249Z,770
2018-08-28T07:04:47.222Z,776
2018-08-28T07:05:47.153Z,781
2018-08-28T07:06:47.222Z,793
2018-08-28T07:07:47.155Z,804
2018-08-28T07:08:47.221Z,815
2018-08-28T07:09:47.150Z,826
2018-08-28T07:10:47.225Z,843
2018-08-28T07:11:47.157Z,860
2018-08-28T07:12:47.224Z,877
2018-08-28T07:13:47.165Z,900
2018-08-28T07:14:47.102Z,916
2018-08-28T07:15:47.212Z,939
2018-08-28T07:16:47.200Z,956
2018-08-28T07:17:47.106Z,978
2018-08-28T07:18:47.228Z,1001
2018-08-28T07:19:47.233Z,1023
2018-08-28T07:20:47.155Z,1035
2018-08-28T07:21:47.190Z,1051
2018-08-28T07:22:47.168Z,1063
2018-08-28T07:23:47.158Z,1068
2018-08-28T07:24:47.143Z,1080
2018-08-28T07:25:47.243Z,1085
2018-08-28T07:26:47.196Z,1085
2018-08-28T07:27:47.128Z,1096
2018-08-28T07:28:47.193Z,1091
2018-08-28T07:29:47.182Z,1108
2018-08-28T07:30:47.124Z,1113
2018-08-28T07:31:47.262Z,1130
2018-08-28T07:32:47.127Z,1147
2018-08-28T07:33:47.108Z,1164
2018-08-28T07:34:47.169Z,1192
2018-08-28T07:35:47.240Z,1215
2018-08-28T07:36:47.167Z,1248
2018-08-28T07:37:47.243Z,1282
2018-08-28T07:38:47.244Z,1327
2018-08-28T07:39:47.219Z,1378
2018-08-28T07:40:47.246Z,1411
2018-08-28T07:41:47.174Z,1428
2018-08-28T07:42:47.279Z,1445
2018-08-28T07:43:47.175Z,1462
2018-08-28T07:44:47.236Z,1524
2018-08-28T07:45:47.238Z,1518
2018-08-28T07:46:47.179Z,1524
2018-08-28T07:47:47.157Z,1535
2018-08-28T07:48:47.228Z,1552
2018-08-28T07:49:47.152Z,1569
2018-08-28T07:50:47.218Z,1614
2018-08-28T07:51:47.216Z,1620
2018-08-28T07:52:47.177Z,1614
2018-08-28T07:53:47.243Z,1625
2018-08-28T07:54:47.252Z,1653
2018-08-28T07:55:47.181Z,1620
2018-08-28T07:56:47.256Z,1620
2018-08-28T07:57:47.186Z,1608
2018-08-28T07:58:47.257Z,1603
2018-08-28T07:59:47.193Z,1603
2018-08-28T08:00:47.259Z,1586
2018-08-28T08:01:47.187Z,1603
2018-08-28T08:02:47.261Z,1614
2018-08-28T08:03:47.188Z,1608
2018-08-28T08:04:47.208Z,1625
2018-08-28T08:05:47.133Z,1648
2018-08-28T08:06:47.151Z,1670
2018-08-28T08:07:47.119Z,1681
2018-08-28T08:08:47.132Z,1698
2018-08-28T08:09:47.204Z,1721
2018-08-28T08:10:47.227Z,1755
2018-08-28T08:11:47.170Z,1800
2018-08-28T08:12:47.226Z,1878
2018-08-28T08:13:47.161Z,1940
2018-08-28T08:14:47.133Z,1946
2018-08-28T08:15:47.328Z,2002
2018-08-28T08:16:47.134Z,2143
2018-08-28T08:17:47.326Z,2491
2018-08-28T08:18:47.207Z,2120
2018-08-28T08:19:47.156Z,2002
2018-08-28T08:20:47.259Z,1946
2018-08-28T08:21:47.241Z,1968
2018-08-28T08:22:47.206Z,1996
2018-08-28T08:23:47.180Z,2025
2018-08-28T08:24:47.277Z,2047
2018-08-28T08:25:47.277Z,2081
2018-08-28T08:26:47.222Z,2160
2018-08-28T08:27:47.233Z,2210
2018-08-28T08:28:47.278Z,2306
2018-08-28T08:29:47.215Z,2885
2018-08-28T08:30:47.213Z,2520
2018-08-28T08:31:47.282Z,2446
2018-08-28T08:32:47.218Z,2368
2018-08-28T08:33:47.289Z,2311
2018-08-28T08:34:47.247Z,2323
2018-08-28T08:35:47.223Z,2480
2018-08-28T08:36:47.208Z,2722
2018-08-28T08:37:47.234Z,2413
2018-08-28T08:38:47.192Z,2430
2018-08-28T08:39:47.168Z,2514
2018-08-28T08:40:47.212Z,3189
2018-08-28T08:41:47.214Z,3521
2018-08-28T08:42:47.176Z,2655
2018-08-28T08:43:47.171Z,2739
2018-08-28T08:44:47.245Z,2745
2018-08-28T08:45:47.291Z,2520
2018-08-28T08:46:47.256Z,2626
2018-08-28T08:47:47.296Z,2750
2018-08-28T08:48:47.223Z,2767
2018-08-28T08:49:47.294Z,2728
2018-08-28T08:50:47.295Z,2851
2018-08-28T08:51:47.295Z,2716
2018-08-28T08:52:47.297Z,2756
2018-08-28T08:53:47.236Z,2548
2018-08-28T08:54:47.364Z,2491
2018-08-28T08:55:47.227Z,2441
2018-08-28T08:56:47.299Z,2334
2018-08-28T08:57:47.227Z,2295
2018-08-28T08:58:47.299Z,2295
2018-08-28T08:59:47.231Z,2463
2018-08-28T09:00:47.304Z,2295
2018-08-28T09:01:47.226Z,2323
2018-08-28T09:02:47.228Z,2385
2018-08-28T09:03:47.230Z,2508
2018-08-28T09:04:47.247Z,2621
2018-08-28T09:05:47.191Z,2705
2018-08-28T09:06:47.206Z,2604
2018-08-28T09:07:47.196Z,2542
2018-08-28T09:08:47.306Z,2441
2018-08-28T09:09:47.268Z,2463
2018-08-28T09:10:47.214Z,2610
2018-08-28T09:11:47.248Z,2778
2018-08-28T09:12:47.315Z,2666
2018-08-28T09:13:47.275Z,3256
2018-08-28T09:14:47.201Z,4342
2018-08-28T09:15:47.315Z,4016
2018-08-28T09:16:47.311Z,4393
2018-08-28T09:17:47.315Z,2576
2018-08-28T09:18:47.246Z,2958
2018-08-28T09:19:47.316Z,2514
2018-08-28T09:20:47.467Z,2503
2018-08-28T09:21:47.239Z,2632
2018-08-28T09:22:47.314Z,2520
2018-08-28T09:23:47.243Z,2581
2018-08-28T09:24:47.188Z,2795
2018-08-28T09:25:47.288Z,2778
2018-08-28T09:26:47.311Z,3892
2018-08-28T09:27:47.228Z,4325
2018-08-28T09:28:47.230Z,4348
2018-08-28T09:29:47.311Z,3881
2018-08-28T09:30:47.320Z,4145
2018-08-28T09:31:47.364Z,2250
2018-08-28T09:32:47.290Z,2193
2018-08-28T09:33:47.221Z,2176
2018-08-28T09:34:47.254Z,2210
2018-08-28T09:35:47.324Z,2238
2018-08-28T09:36:47.252Z,2261
2018-08-28T09:37:47.253Z,2340
2018-08-28T09:38:47.377Z,2154
2018-08-28T09:39:47.255Z,2137
2018-08-28T09:40:47.367Z,2154
2018-08-28T09:41:47.256Z,2317
2018-08-28T09:42:47.256Z,2148
2018-08-28T09:43:47.333Z,2120
2018-08-28T09:44:47.332Z,2115
2018-08-28T09:45:47.256Z,2103
2018-08-28T09:46:47.333Z,2098
2018-08-28T09:47:47.334Z,2098
2018-08-28T09:48:47.261Z,4348
2018-08-28T09:49:47.346Z,4230
2018-08-28T09:50:47.395Z,1996
2018-08-28T09:51:47.339Z,1856
2018-08-28T09:52:47.269Z,1867
2018-08-28T09:53:47.339Z,1755
2018-08-28T09:54:47.262Z,1743
2018-08-28T09:55:47.191Z,1738
2018-08-28T09:56:47.232Z,1726
2018-08-28T09:57:47.166Z,1676
2018-08-28T09:58:47.297Z,1625
2018-08-28T09:59:47.234Z,1603
2018-08-28T10:00:47.282Z,1603
2018-08-28T10:01:47.356Z,1625
2018-08-28T10:02:47.341Z,1648
2018-08-28T10:03:47.233Z,1676
2018-08-28T10:04:47.331Z,1676
2018-08-28T10:05:47.284Z,1681
2018-08-28T10:06:47.284Z,1704
2018-08-28T10:07:47.282Z,1721
2018-08-28T10:08:47.302Z,1743
2018-08-28T10:09:47.242Z,1715
2018-08-28T10:10:47.258Z,1704
2018-08-28T10:11:47.293Z,1704
2018-08-28T10:12:47.290Z,1726
2018-08-28T10:13:47.244Z,2143
2018-08-28T10:14:47.219Z,1732
2018-08-28T10:15:47.279Z,1749
2018-08-28T10:16:47.313Z,1710
2018-08-28T10:17:47.381Z,1681
2018-08-28T10:18:47.221Z,1642
2018-08-28T10:19:47.248Z,1591
2018-08-28T10:20:47.314Z,1580
2018-08-28T10:21:47.302Z,1591
2018-08-28T10:22:47.308Z,1603
2018-08-28T10:23:47.300Z,1603
2018-08-28T10:24:47.230Z,1620
2018-08-28T10:25:47.265Z,1642
2018-08-28T10:26:47.324Z,1670
2018-08-28T10:27:47.265Z,1704
2018-08-28T10:28:47.288Z,1755
2018-08-28T10:29:47.313Z,1811
2018-08-28T10:30:47.310Z,1878
2018-08-28T10:31:47.325Z,1906
2018-08-28T10:32:47.255Z,1946
2018-08-28T10:33:47.269Z,2019
2018-08-28T10:34:47.332Z,2407
2018-08-28T10:35:47.351Z,4483
2018-08-28T10:36:47.242Z,4471
2018-08-28T10:37:47.293Z,4466
2018-08-28T10:38:47.246Z,4449
2018-08-28T10:39:47.324Z,4488
2018-08-28T10:40:47.330Z,4483
2018-08-28T10:41:47.359Z,4455
2018-08-28T10:42:47.359Z,4466
2018-08-28T10:43:47.334Z,4421
2018-08-28T10:44:47.327Z,4365
2018-08-28T10:45:47.308Z,4376
2018-08-28T10:46:47.560Z,4443
2018-08-28T10:47:47.337Z,4455
2018-08-28T10:48:47.398Z,4365
2018-08-28T10:49:47.322Z,4078
2018-08-28T10:50:47.308Z,4224
2018-08-28T10:51:47.381Z,2531
2018-08-28T10:52:47.444Z,1963
2018-08-28T10:53:47.315Z,1822
2018-08-28T10:54:47.403Z,1721
2018-08-28T10:55:47.306Z,1648
2018-08-28T10:56:47.383Z,1603
2018-08-28T10:57:47.331Z,1586
2018-08-28T10:58:47.538Z,1608
2018-08-28T10:59:47.368Z,1625
2018-08-28T11:00:47.318Z,1715
2018-08-28T11:01:47.381Z,1704
2018-08-28T11:02:47.313Z,1749
2018-08-28T11:03:47.387Z,1974
2018-08-28T11:04:47.323Z,1586
2018-08-28T11:05:47.328Z,1552
2018-08-28T11:06:47.364Z,1580
2018-08-28T11:07:47.329Z,1597
2018-08-28T11:08:47.402Z,1620
2018-08-28T11:09:47.330Z,1636
2018-08-28T11:10:47.365Z,1676
2018-08-28T11:11:47.330Z,1721
2018-08-28T11:12:47.334Z,1777
2018-08-28T11:13:47.290Z,1800
2018-08-28T11:14:47.349Z,1816
2018-08-28T11:15:47.395Z,1833
2018-08-28T11:16:47.332Z,1850
2018-08-28T11:17:47.400Z,1861
2018-08-28T11:18:47.327Z,1895
2018-08-28T11:19:47.400Z,1974
2018-08-28T11:20:47.332Z,2025
2018-08-28T11:21:47.337Z,2036
2018-08-28T11:22:47.423Z,2030
2018-08-28T11:23:47.344Z,1980
2018-08-28T11:24:47.403Z,1923
2018-08-28T11:25:47.264Z,1867
2018-08-28T11:26:47.307Z,1946
2018-08-28T11:27:47.366Z,1828
2018-08-28T11:28:47.355Z,1788
2018-08-28T11:29:47.332Z,1726
2018-08-28T11:30:47.261Z,1681
2018-08-28T11:31:47.416Z,1648
2018-08-28T11:32:47.318Z,1631
2018-08-28T11:33:47.337Z,1620
2018-08-28T11:34:47.336Z,1614
2018-08-28T11:35:47.393Z,1608
2018-08-28T11:36:47.410Z,1620
2018-08-28T11:37:47.344Z,1636
2018-08-28T11:38:47.412Z,1648
2018-08-28T11:39:47.421Z,1631
2018-08-28T11:40:47.337Z,1597
2018-08-28T11:41:47.341Z,1569
2018-08-28T11:42:47.418Z,1546
2018-08-28T11:43:47.415Z,1530
2018-08-28T11:44:47.348Z,1518
2018-08-28T11:45:47.418Z,1518
2018-08-28T11:46:47.348Z,1490
2018-08-28T11:47:47.350Z,1479
2018-08-28T11:48:47.425Z,1496
2018-08-28T11:49:47.423Z,1513
2018-08-28T11:50:47.358Z,1530
2018-08-28T11:51:47.423Z,1558
2018-08-28T11:52:47.353Z,1591
2018-08-28T11:53:47.420Z,1625
2018-08-28T11:54:47.425Z,1659
2018-08-28T11:55:47.432Z,1687
2018-08-28T11:56:47.424Z,1715
2018-08-28T11:57:47.305Z,1721
2018-08-28T11:58:47.289Z,1726
2018-08-28T11:59:47.371Z,1715
2018-08-28T12:00:47.338Z,1715
2018-08-28T12:01:47.331Z,1704
2018-08-28T12:02:47.328Z,1698
2018-08-28T12:03:47.369Z,1670
2018-08-28T12:04:47.332Z,1653
2018-08-28T12:05:47.437Z,1665
2018-08-28T12:06:47.502Z,1659
2018-08-28T12:07:47.471Z,1653
2018-08-28T12:08:47.374Z,1625
2018-08-28T12:09:47.434Z,1591
2018-08-28T12:10:47.434Z,1569
2018-08-28T12:11:47.398Z,1541
2018-08-28T12:12:47.398Z,1518
2018-08-28T12:13:47.338Z,1507
2018-08-28T12:14:47.401Z,1496
2018-08-28T12:15:47.425Z,1462
2018-08-28T12:16:47.403Z,1434
2018-08-28T12:17:47.318Z,1395
2018-08-28T12:18:47.406Z,1378
2018-08-28T12:19:47.384Z,1372
2018-08-28T12:20:47.384Z,1389
2018-08-28T12:21:47.319Z,1411
2018-08-28T12:22:47.412Z,1434
2018-08-28T12:23:47.441Z,1451
2018-08-28T12:24:47.388Z,1468
2018-08-28T12:25:47.412Z,1473
2018-08-28T12:26:47.428Z,1496
2018-08-28T12:27:47.388Z,1501
2018-08-28T12:28:47.436Z,1541
2018-08-28T12:29:47.510Z,1642
2018-08-28T12:30:47.408Z,1698
2018-08-28T12:31:47.434Z,1771
2018-08-28T12:32:47.410Z,1659
2018-08-28T12:33:47.442Z,1620
2018-08-28T12:34:47.417Z,1620
2018-08-28T12:35:47.332Z,1614
2018-08-28T12:36:47.413Z,1608
2018-08-28T12:37:47.355Z,1625
2018-08-28T12:38:47.359Z,1642
2018-08-28T12:39:47.415Z,1653
2018-08-28T12:40:47.358Z,1642
2018-08-28T12:41:47.421Z,1631
2018-08-28T12:42:47.319Z,1625
2018-08-28T12:43:47.414Z,1608
2018-08-28T12:44:47.446Z,1625
2018-08-28T12:45:47.420Z,1653
2018-08-28T12:46:47.424Z,1710
2018-08-28T12:47:47.406Z,1760
2018-08-28T12:48:47.340Z,1800
2018-08-28T12:49:47.365Z,1822
2018-08-28T12:50:47.431Z,1839
2018-08-28T12:51:47.348Z,1839
2018-08-28T12:52:47.395Z,1828
2018-08-28T12:53:47.436Z,1805
2018-08-28T12:54:47.472Z,1794
2018-08-28T12:55:47.430Z,1777
2018-08-28T12:56:47.431Z,1755
2018-08-28T12:57:47.363Z,1743
2018-08-28T12:58:47.339Z,1726
2018-08-28T12:59:47.366Z,1710
2018-08-28T13:00:47.469Z,1704
2018-08-28T13:01:47.372Z,1704
2018-08-28T13:02:47.439Z,1710
2018-08-28T13:03:47.414Z,1693
2018-08-28T13:04:47.354Z,1653
2018-08-28T13:05:47.396Z,1620
2018-08-28T13:06:47.367Z,1591
2018-08-28T13:07:47.414Z,1580
2018-08-28T13:08:47.420Z,1597
2018-08-28T13:09:47.418Z,1614
2018-08-28T13:10:47.425Z,1687
2018-08-28T13:11:47.450Z,1968
2018-08-28T13:12:47.315Z,1850
2018-08-28T13:13:47.315Z,1884
2018-08-28T13:14:47.418Z,1738
2018-08-28T13:15:47.482Z,1698
2018-08-28T13:16:47.409Z,1665
2018-08-28T13:17:47.477Z,1591
2018-08-28T13:18:47.408Z,1513
2018-08-28T13:19:47.488Z,1456
2018-08-28T13:20:47.415Z,1428
2018-08-28T13:21:47.483Z,1440
2018-08-28T13:22:47.408Z,1473
2018-08-28T13:23:47.483Z,1490
2018-08-28T13:24:47.458Z,1501
2018-08-28T13:25:47.594Z,1580
2018-08-28T13:26:47.417Z,1828
2018-08-28T13:27:47.557Z,2345
2018-08-28T13:28:47.370Z,2328
2018-08-28T13:29:47.414Z,3060
2018-08-28T13:30:47.492Z,3195
2018-08-28T13:31:47.423Z,3234
2018-08-28T13:32:47.493Z,2525
2018-08-28T13:33:47.422Z,3138
2018-08-28T13:34:47.495Z,3346
2018-08-28T13:35:47.425Z,3386
2018-08-28T13:36:47.501Z,3431
2018-08-28T13:37:47.424Z,3397
2018-08-28T13:38:47.499Z,3386
2018-08-28T13:39:47.497Z,3465
2018-08-28T13:40:47.679Z,3560
2018-08-28T13:41:47.474Z,3605
2018-08-28T13:42:47.500Z,3498
2018-08-28T13:43:47.434Z,3380
2018-08-28T13:44:47.503Z,3358
2018-08-28T13:45:47.468Z,3296
2018-08-28T13:46:47.400Z,3285
2018-08-28T13:47:47.432Z,3150
2018-08-28T13:48:47.406Z,3076
2018-08-28T13:49:47.469Z,3127
2018-08-28T13:50:47.431Z,3150
2018-08-28T13:51:47.445Z,3037
2018-08-28T13:52:47.468Z,2964
2018-08-28T13:53:47.540Z,2941
2018-08-28T13:54:47.387Z,2930